sensor_id;sensor_type;location;lat;lon;timestamp;P1;durP1;ratioP1;P2;durP2;ratioP2
74042;SDS011;62384;53.600;10.040;2022-08-21T00:01:02;10.85;;;4.25;;
74042;SDS011;62384;53.600;10.040;2022-08-21T00:03:31;8.15;;;3.28;;
74042;SDS011;62384;53.600;10.040;2022-08-21T00:05:56;9.57;;;3.80;;
74042;SDS011;62384;53.600;10.040;2022-08-21T00:08:22;8.05;;;3.22;;
74042;SDS011;62384;53.600;10.040;2022-08-21T00:10:48;10.23;;;3.85;;
74042;SDS011;62384;53.600;10.040;2022-08-21T00:13:14;5.70;;;3.13;;
74042;SDS011;62384;53.600;10.040;2022-08-21T00:15:40;6.90;;;3.10;;
74042;SDS011;62384;53.600;10.040;2022-08-21T00:18:06;7.88;;;3.30;;
74042;SDS011;62384;53.600;10.040;2022-08-21T00:20:33;5.35;;;2.90;;
74042;SDS011;62384;53.600;10.040;2022-08-21T00:22:59;8.32;;;3.58;;
74042;SDS011;62384;53.600;10.040;2022-08-21T00:25:25;8.85;;;3.88;;
74042;SDS011;62384;53.600;10.040;2022-08-21T00:27:50;9.13;;;3.80;;
74042;SDS011;62384;53.600;10.040;2022-08-21T00:30:18;6.45;;;3.35;;
74042;SDS011;62384;53.600;10.040;2022-08-21T00:32:44;8.07;;;4.20;;
74042;SDS011;62384;53.600;10.040;2022-08-21T00:35:11;8.43;;;3.92;;
74042;SDS011;62384;53.600;10.040;2022-08-21T00:37:42;8.70;;;3.78;;
74042;SDS011;62384;53.600;10.040;2022-08-21T00:40:09;10.63;;;3.97;;
74042;SDS011;62384;53.600;10.040;2022-08-21T00:42:38;9.02;;;4.43;;
74042;SDS011;62384;53.600;10.040;2022-08-21T00:45:04;15.23;;;3.92;;
74042;SDS011;62384;53.600;10.040;2022-08-21T00:47:31;7.05;;;3.90;;
74042;SDS011;62384;53.600;10.040;2022-08-21T00:49:56;10.05;;;4.32;;
74042;SDS011;62384;53.600;10.040;2022-08-21T00:52:22;8.90;;;4.15;;
74042;SDS011;62384;53.600;10.040;2022-08-21T00:54:52;8.90;;;4.38;;
74042;SDS011;62384;53.600;10.040;2022-08-21T00:57:20;11.75;;;4.38;;
74042;SDS011;62384;53.600;10.040;2022-08-21T00:59:54;7.80;;;4.63;;
74042;SDS011;62384;53.600;10.040;2022-08-21T01:02:21;11.07;;;4.65;;
74042;SDS011;62384;53.600;10.040;2022-08-21T01:04:47;8.93;;;4.30;;
74042;SDS011;62384;53.600;10.040;2022-08-21T01:07:13;7.95;;;4.63;;
74042;SDS011;62384;53.600;10.040;2022-08-21T01:09:38;10.38;;;4.70;;
74042;SDS011;62384;53.600;10.040;2022-08-21T01:12:05;7.65;;;4.55;;
74042;SDS011;62384;53.600;10.040;2022-08-21T01:14:31;10.30;;;4.22;;
74042;SDS011;62384;53.600;10.040;2022-08-21T01:16:58;7.85;;;4.30;;
74042;SDS011;62384;53.600;10.040;2022-08-21T01:19:24;7.13;;;4.50;;
74042;SDS011;62384;53.600;10.040;2022-08-21T01:21:50;10.82;;;4.63;;
74042;SDS011;62384;53.600;10.040;2022-08-21T01:24:16;9.88;;;4.25;;
74042;SDS011;62384;53.600;10.040;2022-08-21T01:26:42;9.82;;;4.10;;
74042;SDS011;62384;53.600;10.040;2022-08-21T01:29:16;8.95;;;4.00;;
74042;SDS011;62384;53.600;10.040;2022-08-21T01:31:51;8.40;;;3.78;;
74042;SDS011;62384;53.600;10.040;2022-08-21T01:34:16;7.90;;;3.97;;
74042;SDS011;62384;53.600;10.040;2022-08-21T01:36:43;11.52;;;4.43;;
74042;SDS011;62384;53.600;10.040;2022-08-21T01:39:11;11.77;;;3.97;;
74042;SDS011;62384;53.600;10.040;2022-08-21T01:41:37;7.10;;;4.05;;
74042;SDS011;62384;53.600;10.040;2022-08-21T01:44:02;8.35;;;3.25;;
74042;SDS011;62384;53.600;10.040;2022-08-21T01:49:50;10.35;;;4.00;;
74042;SDS011;62384;53.600;10.040;2022-08-21T01:52:15;8.70;;;4.57;;
74042;SDS011;62384;53.600;10.040;2022-08-21T01:54:41;8.65;;;3.58;;
74042;SDS011;62384;53.600;10.040;2022-08-21T01:57:07;7.57;;;3.70;;
74042;SDS011;62384;53.600;10.040;2022-08-21T01:59:33;9.80;;;4.20;;
74042;SDS011;62384;53.600;10.040;2022-08-21T02:01:58;9.73;;;4.30;;
74042;SDS011;62384;53.600;10.040;2022-08-21T02:04:24;7.25;;;4.40;;
74042;SDS011;62384;53.600;10.040;2022-08-21T02:06:51;6.95;;;3.75;;
74042;SDS011;62384;53.600;10.040;2022-08-21T02:09:16;7.43;;;3.90;;
74042;SDS011;62384;53.600;10.040;2022-08-21T02:11:42;7.43;;;3.88;;
74042;SDS011;62384;53.600;10.040;2022-08-21T02:14:08;7.30;;;4.30;;
74042;SDS011;62384;53.600;10.040;2022-08-21T02:16:38;9.85;;;4.10;;
74042;SDS011;62384;53.600;10.040;2022-08-21T02:19:04;9.40;;;5.00;;
74042;SDS011;62384;53.600;10.040;2022-08-21T02:21:30;8.48;;;4.45;;
74042;SDS011;62384;53.600;10.040;2022-08-21T02:23:55;7.40;;;3.70;;
74042;SDS011;62384;53.600;10.040;2022-08-21T02:26:21;10.43;;;4.63;;
74042;SDS011;62384;53.600;10.040;2022-08-21T02:28:46;13.18;;;4.22;;
74042;SDS011;62384;53.600;10.040;2022-08-21T02:31:12;13.93;;;4.85;;
74042;SDS011;62384;53.600;10.040;2022-08-21T02:33:37;8.82;;;4.50;;
74042;SDS011;62384;53.600;10.040;2022-08-21T02:36:04;9.07;;;4.10;;
74042;SDS011;62384;53.600;10.040;2022-08-21T02:38:30;10.85;;;4.32;;
74042;SDS011;62384;53.600;10.040;2022-08-21T02:41:03;7.18;;;4.40;;
74042;SDS011;62384;53.600;10.040;2022-08-21T02:43:29;9.55;;;5.30;;
74042;SDS011;62384;53.600;10.040;2022-08-21T02:45:55;9.32;;;4.63;;
74042;SDS011;62384;53.600;10.040;2022-08-21T02:48:23;10.63;;;4.20;;
74042;SDS011;62384;53.600;10.040;2022-08-21T02:50:55;7.43;;;4.38;;
74042;SDS011;62384;53.600;10.040;2022-08-21T02:53:30;12.48;;;5.68;;
74042;SDS011;62384;53.600;10.040;2022-08-21T02:55:57;6.38;;;3.92;;
74042;SDS011;62384;53.600;10.040;2022-08-21T02:58:26;11.07;;;4.80;;
74042;SDS011;62384;53.600;10.040;2022-08-21T03:00:53;9.35;;;4.55;;
74042;SDS011;62384;53.600;10.040;2022-08-21T03:03:19;12.60;;;3.95;;
74042;SDS011;62384;53.600;10.040;2022-08-21T03:05:45;7.53;;;4.32;;
74042;SDS011;62384;53.600;10.040;2022-08-21T03:08:12;7.65;;;3.78;;
74042;SDS011;62384;53.600;10.040;2022-08-21T03:10:40;9.45;;;4.47;;
74042;SDS011;62384;53.600;10.040;2022-08-21T03:13:07;7.22;;;3.97;;
74042;SDS011;62384;53.600;10.040;2022-08-21T03:15:33;9.07;;;5.10;;
74042;SDS011;62384;53.600;10.040;2022-08-21T03:17:58;6.63;;;3.63;;
74042;SDS011;62384;53.600;10.040;2022-08-21T03:20:25;10.15;;;4.40;;
74042;SDS011;62384;53.600;10.040;2022-08-21T03:22:52;10.90;;;4.35;;
74042;SDS011;62384;53.600;10.040;2022-08-21T03:25:19;7.38;;;4.10;;
74042;SDS011;62384;53.600;10.040;2022-08-21T03:27:46;7.38;;;4.82;;
74042;SDS011;62384;53.600;10.040;2022-08-21T03:30:13;7.50;;;4.60;;
74042;SDS011;62384;53.600;10.040;2022-08-21T03:32:38;9.88;;;4.30;;
74042;SDS011;62384;53.600;10.040;2022-08-21T03:35:06;7.38;;;3.70;;
74042;SDS011;62384;53.600;10.040;2022-08-21T03:37:32;9.45;;;4.55;;
74042;SDS011;62384;53.600;10.040;2022-08-21T03:39:57;12.48;;;4.65;;
74042;SDS011;62384;53.600;10.040;2022-08-21T03:42:23;7.43;;;3.67;;
74042;SDS011;62384;53.600;10.040;2022-08-21T03:44:48;7.38;;;3.90;;
74042;SDS011;62384;53.600;10.040;2022-08-21T03:47:13;8.90;;;3.83;;
74042;SDS011;62384;53.600;10.040;2022-08-21T03:49:38;9.93;;;4.38;;
74042;SDS011;62384;53.600;10.040;2022-08-21T03:52:04;7.80;;;4.30;;
74042;SDS011;62384;53.600;10.040;2022-08-21T03:54:30;7.95;;;3.75;;
74042;SDS011;62384;53.600;10.040;2022-08-21T04:00:20;9.60;;;3.90;;
74042;SDS011;62384;53.600;10.040;2022-08-21T04:02:46;5.80;;;3.88;;
74042;SDS011;62384;53.600;10.040;2022-08-21T04:05:12;6.97;;;3.50;;
74042;SDS011;62384;53.600;10.040;2022-08-21T04:07:38;6.15;;;3.95;;
74042;SDS011;62384;53.600;10.040;2022-08-21T04:10:05;8.45;;;4.00;;
74042;SDS011;62384;53.600;10.040;2022-08-21T04:12:31;8.65;;;3.72;;
74042;SDS011;62384;53.600;10.040;2022-08-21T04:14:57;8.65;;;4.45;;
74042;SDS011;62384;53.600;10.040;2022-08-21T04:17:22;5.53;;;3.50;;
74042;SDS011;62384;53.600;10.040;2022-08-21T04:19:48;6.35;;;3.80;;
74042;SDS011;62384;53.600;10.040;2022-08-21T04:22:15;9.90;;;3.90;;
74042;SDS011;62384;53.600;10.040;2022-08-21T04:24:40;8.15;;;4.05;;
74042;SDS011;62384;53.600;10.040;2022-08-21T04:27:06;6.28;;;4.07;;
74042;SDS011;62384;53.600;10.040;2022-08-21T04:29:31;6.13;;;3.45;;
74042;SDS011;62384;53.600;10.040;2022-08-21T04:31:56;6.88;;;3.60;;
74042;SDS011;62384;53.600;10.040;2022-08-21T04:34:22;8.20;;;4.38;;
74042;SDS011;62384;53.600;10.040;2022-08-21T04:36:47;6.85;;;3.53;;
74042;SDS011;62384;53.600;10.040;2022-08-21T04:39:12;8.40;;;4.10;;
74042;SDS011;62384;53.600;10.040;2022-08-21T04:41:38;9.43;;;4.25;;
74042;SDS011;62384;53.600;10.040;2022-08-21T04:44:03;7.30;;;2.95;;
74042;SDS011;62384;53.600;10.040;2022-08-21T04:46:29;8.43;;;3.47;;
74042;SDS011;62384;53.600;10.040;2022-08-21T04:48:54;5.30;;;2.92;;
74042;SDS011;62384;53.600;10.040;2022-08-21T04:51:38;6.07;;;3.75;;
74042;SDS011;62384;53.600;10.040;2022-08-21T04:56:55;6.22;;;3.65;;
74042;SDS011;62384;53.600;10.040;2022-08-21T04:59:26;4.80;;;3.05;;
74042;SDS011;62384;53.600;10.040;2022-08-21T05:01:55;11.85;;;3.63;;
74042;SDS011;62384;53.600;10.040;2022-08-21T05:04:21;4.93;;;3.40;;
74042;SDS011;62384;53.600;10.040;2022-08-21T05:06:50;6.00;;;3.45;;
74042;SDS011;62384;53.600;10.040;2022-08-21T05:09:17;9.27;;;3.95;;
74042;SDS011;62384;53.600;10.040;2022-08-21T05:11:44;6.00;;;3.42;;
74042;SDS011;62384;53.600;10.040;2022-08-21T05:14:10;10.23;;;3.83;;
74042;SDS011;62384;53.600;10.040;2022-08-21T05:16:36;8.50;;;3.70;;
74042;SDS011;62384;53.600;10.040;2022-08-21T05:19:02;8.32;;;3.15;;
74042;SDS011;62384;53.600;10.040;2022-08-21T05:24:49;5.47;;;3.03;;
74042;SDS011;62384;53.600;10.040;2022-08-21T05:27:16;8.25;;;3.20;;
74042;SDS011;62384;53.600;10.040;2022-08-21T05:29:42;5.50;;;2.75;;
74042;SDS011;62384;53.600;10.040;2022-08-21T05:32:11;8.90;;;3.20;;
74042;SDS011;62384;53.600;10.040;2022-08-21T05:34:38;9.60;;;3.30;;
74042;SDS011;62384;53.600;10.040;2022-08-21T05:37:04;8.43;;;3.00;;
74042;SDS011;62384;53.600;10.040;2022-08-21T05:39:29;6.07;;;3.10;;
74042;SDS011;62384;53.600;10.040;2022-08-21T05:41:55;5.57;;;2.85;;
74042;SDS011;62384;53.600;10.040;2022-08-21T05:44:20;5.78;;;2.83;;
74042;SDS011;62384;53.600;10.040;2022-08-21T05:46:45;3.80;;;2.40;;
74042;SDS011;62384;53.600;10.040;2022-08-21T05:49:10;10.55;;;2.38;;
74042;SDS011;62384;53.600;10.040;2022-08-21T05:51:36;5.22;;;2.67;;
74042;SDS011;62384;53.600;10.040;2022-08-21T05:54:02;4.45;;;2.58;;
74042;SDS011;62384;53.600;10.040;2022-08-21T05:56:27;4.85;;;2.25;;
74042;SDS011;62384;53.600;10.040;2022-08-21T05:58:53;5.43;;;3.17;;
74042;SDS011;62384;53.600;10.040;2022-08-21T06:01:18;5.43;;;2.58;;
74042;SDS011;62384;53.600;10.040;2022-08-21T06:03:47;5.25;;;2.65;;
74042;SDS011;62384;53.600;10.040;2022-08-21T06:06:13;5.43;;;2.30;;
74042;SDS011;62384;53.600;10.040;2022-08-21T06:08:38;5.20;;;2.28;;
74042;SDS011;62384;53.600;10.040;2022-08-21T06:11:04;6.03;;;2.75;;
74042;SDS011;62384;53.600;10.040;2022-08-21T06:13:30;4.15;;;2.53;;
74042;SDS011;62384;53.600;10.040;2022-08-21T06:16:10;4.80;;;2.55;;
74042;SDS011;62384;53.600;10.040;2022-08-21T06:18:38;4.13;;;2.25;;
74042;SDS011;62384;53.600;10.040;2022-08-21T06:21:04;5.90;;;2.58;;
74042;SDS011;62384;53.600;10.040;2022-08-21T06:23:30;4.90;;;2.10;;
74042;SDS011;62384;53.600;10.040;2022-08-21T06:25:56;7.63;;;2.20;;
74042;SDS011;62384;53.600;10.040;2022-08-21T06:28:22;6.13;;;2.10;;
74042;SDS011;62384;53.600;10.040;2022-08-21T06:30:47;3.33;;;1.98;;
74042;SDS011;62384;53.600;10.040;2022-08-21T06:33:13;3.85;;;1.90;;
74042;SDS011;62384;53.600;10.040;2022-08-21T06:35:38;3.45;;;1.80;;
74042;SDS011;62384;53.600;10.040;2022-08-21T06:38:04;4.53;;;1.70;;
74042;SDS011;62384;53.600;10.040;2022-08-21T06:40:29;3.65;;;1.80;;
74042;SDS011;62384;53.600;10.040;2022-08-21T06:42:57;2.28;;;1.42;;
74042;SDS011;62384;53.600;10.040;2022-08-21T06:45:23;2.45;;;1.58;;
74042;SDS011;62384;53.600;10.040;2022-08-21T06:47:49;3.90;;;1.83;;
74042;SDS011;62384;53.600;10.040;2022-08-21T06:50:14;6.72;;;1.63;;
74042;SDS011;62384;53.600;10.040;2022-08-21T06:52:40;4.55;;;1.83;;
74042;SDS011;62384;53.600;10.040;2022-08-21T06:55:06;2.45;;;1.65;;
74042;SDS011;62384;53.600;10.040;2022-08-21T06:57:33;4.75;;;1.50;;
74042;SDS011;62384;53.600;10.040;2022-08-21T06:59:59;4.13;;;1.58;;
74042;SDS011;62384;53.600;10.040;2022-08-21T07:02:24;3.42;;;1.48;;
74042;SDS011;62384;53.600;10.040;2022-08-21T07:04:50;3.05;;;1.65;;
74042;SDS011;62384;53.600;10.040;2022-08-21T07:07:15;4.28;;;1.45;;
74042;SDS011;62384;53.600;10.040;2022-08-21T07:09:41;6.45;;;2.10;;
74042;SDS011;62384;53.600;10.040;2022-08-21T07:12:07;3.90;;;1.80;;
74042;SDS011;62384;53.600;10.040;2022-08-21T07:14:32;3.53;;;1.38;;
74042;SDS011;62384;53.600;10.040;2022-08-21T07:16:58;7.88;;;1.80;;
74042;SDS011;62384;53.600;10.040;2022-08-21T07:19:24;4.80;;;1.50;;
74042;SDS011;62384;53.600;10.040;2022-08-21T07:21:49;2.03;;;1.42;;
74042;SDS011;62384;53.600;10.040;2022-08-21T07:24:21;5.30;;;1.30;;
74042;SDS011;62384;53.600;10.040;2022-08-21T07:26:47;5.15;;;1.85;;
74042;SDS011;62384;53.600;10.040;2022-08-21T07:29:12;4.45;;;1.40;;
74042;SDS011;62384;53.600;10.040;2022-08-21T07:31:37;7.97;;;2.08;;
74042;SDS011;62384;53.600;10.040;2022-08-21T07:34:03;3.92;;;1.02;;
74042;SDS011;62384;53.600;10.040;2022-08-21T07:36:28;3.22;;;1.23;;
74042;SDS011;62384;53.600;10.040;2022-08-21T07:38:53;7.03;;;1.42;;
74042;SDS011;62384;53.600;10.040;2022-08-21T07:41:24;4.03;;;1.45;;
74042;SDS011;62384;53.600;10.040;2022-08-21T07:43:53;5.43;;;1.65;;
74042;SDS011;62384;53.600;10.040;2022-08-21T07:46:22;6.15;;;1.88;;
74042;SDS011;62384;53.600;10.040;2022-08-21T07:48:47;5.10;;;1.30;;
74042;SDS011;62384;53.600;10.040;2022-08-21T07:51:14;3.55;;;1.45;;
74042;SDS011;62384;53.600;10.040;2022-08-21T07:53:41;2.20;;;1.17;;
74042;SDS011;62384;53.600;10.040;2022-08-21T07:56:09;5.68;;;1.20;;
74042;SDS011;62384;53.600;10.040;2022-08-21T07:58:35;7.90;;;2.65;;
74042;SDS011;62384;53.600;10.040;2022-08-21T08:01:01;7.40;;;1.27;;
74042;SDS011;62384;53.600;10.040;2022-08-21T08:03:27;5.03;;;1.50;;
74042;SDS011;62384;53.600;10.040;2022-08-21T08:05:53;2.80;;;1.40;;
74042;SDS011;62384;53.600;10.040;2022-08-21T08:08:18;5.57;;;1.40;;
74042;SDS011;62384;53.600;10.040;2022-08-21T08:10:44;5.05;;;1.00;;
74042;SDS011;62384;53.600;10.040;2022-08-21T08:13:10;7.15;;;1.40;;
74042;SDS011;62384;53.600;10.040;2022-08-21T08:15:38;4.43;;;1.02;;
74042;SDS011;62384;53.600;10.040;2022-08-21T08:18:03;6.68;;;1.77;;
74042;SDS011;62384;53.600;10.040;2022-08-21T08:20:28;5.53;;;1.30;;
74042;SDS011;62384;53.600;10.040;2022-08-21T08:22:54;5.35;;;1.52;;
74042;SDS011;62384;53.600;10.040;2022-08-21T08:25:27;3.40;;;1.80;;
74042;SDS011;62384;53.600;10.040;2022-08-21T08:27:53;3.65;;;1.45;;
74042;SDS011;62384;53.600;10.040;2022-08-21T08:30:19;5.90;;;1.17;;
74042;SDS011;62384;53.600;10.040;2022-08-21T08:32:45;5.00;;;1.50;;
74042;SDS011;62384;53.600;10.040;2022-08-21T08:35:15;4.03;;;1.30;;
74042;SDS011;62384;53.600;10.040;2022-08-21T08:37:41;2.83;;;1.17;;
74042;SDS011;62384;53.600;10.040;2022-08-21T08:40:14;1.63;;;1.52;;
74042;SDS011;62384;53.600;10.040;2022-08-21T08:42:48;4.15;;;1.20;;
74042;SDS011;62384;53.600;10.040;2022-08-21T08:45:16;2.92;;;1.50;;
74042;SDS011;62384;53.600;10.040;2022-08-21T08:47:49;6.85;;;1.42;;
74042;SDS011;62384;53.600;10.040;2022-08-21T08:50:45;4.30;;;1.50;;
74042;SDS011;62384;53.600;10.040;2022-08-21T08:53:30;6.70;;;1.40;;
74042;SDS011;62384;53.600;10.040;2022-08-21T08:55:59;5.63;;;1.63;;
74042;SDS011;62384;53.600;10.040;2022-08-21T08:58:30;6.90;;;2.03;;
74042;SDS011;62384;53.600;10.040;2022-08-21T09:00:58;6.97;;;1.45;;
74042;SDS011;62384;53.600;10.040;2022-08-21T09:03:23;3.95;;;1.15;;
74042;SDS011;62384;53.600;10.040;2022-08-21T09:05:55;2.42;;;1.33;;
74042;SDS011;62384;53.600;10.040;2022-08-21T09:11:24;3.85;;;1.70;;
74042;SDS011;62384;53.600;10.040;2022-08-21T09:14:07;3.58;;;1.30;;
74042;SDS011;62384;53.600;10.040;2022-08-21T09:25:32;3.63;;;1.42;;
74042;SDS011;62384;53.600;10.040;2022-08-21T09:28:06;6.80;;;1.42;;
74042;SDS011;62384;53.600;10.040;2022-08-21T09:30:33;4.80;;;1.52;;
74042;SDS011;62384;53.600;10.040;2022-08-21T09:32:59;5.25;;;1.20;;
74042;SDS011;62384;53.600;10.040;2022-08-21T09:42:09;5.57;;;1.45;;
74042;SDS011;62384;53.600;10.040;2022-08-21T09:44:36;6.13;;;1.30;;
74042;SDS011;62384;53.600;10.040;2022-08-21T09:47:06;6.82;;;1.40;;
74042;SDS011;62384;53.600;10.040;2022-08-21T09:49:36;6.72;;;1.35;;
74042;SDS011;62384;53.600;10.040;2022-08-21T09:52:03;8.07;;;1.52;;
74042;SDS011;62384;53.600;10.040;2022-08-21T09:54:35;7.45;;;1.58;;
74042;SDS011;62384;53.600;10.040;2022-08-21T09:59:53;4.35;;;1.33;;
74042;SDS011;62384;53.600;10.040;2022-08-21T10:05:00;2.92;;;1.30;;
74042;SDS011;62384;53.600;10.040;2022-08-21T10:07:29;8.43;;;2.17;;
74042;SDS011;62384;53.600;10.040;2022-08-21T10:16:03;6.95;;;1.55;;
74042;SDS011;62384;53.600;10.040;2022-08-21T10:20:41;6.57;;;1.15;;
74042;SDS011;62384;53.600;10.040;2022-08-21T10:23:24;6.40;;;1.38;;
74042;SDS011;62384;53.600;10.040;2022-08-21T10:26:12;2.17;;;1.20;;
74042;SDS011;62384;53.600;10.040;2022-08-21T10:29:07;8.77;;;1.40;;
74042;SDS011;62384;53.600;10.040;2022-08-21T10:32:11;2.08;;;1.40;;
74042;SDS011;62384;53.600;10.040;2022-08-21T10:34:58;5.78;;;1.98;;
74042;SDS011;62384;53.600;10.040;2022-08-21T10:40:14;6.50;;;2.13;;
74042;SDS011;62384;53.600;10.040;2022-08-21T10:45:24;3.25;;;1.35;;
74042;SDS011;62384;53.600;10.040;2022-08-21T10:47:54;3.42;;;1.10;;
74042;SDS011;62384;53.600;10.040;2022-08-21T10:56:05;4.03;;;1.35;;
74042;SDS011;62384;53.600;10.040;2022-08-21T11:01:44;5.00;;;1.20;;
74042;SDS011;62384;53.600;10.040;2022-08-21T11:04:25;3.03;;;1.10;;
74042;SDS011;62384;53.600;10.040;2022-08-21T11:07:00;6.45;;;1.27;;
74042;SDS011;62384;53.600;10.040;2022-08-21T11:09:30;3.25;;;1.30;;
74042;SDS011;62384;53.600;10.040;2022-08-21T11:14:47;4.38;;;1.20;;
74042;SDS011;62384;53.600;10.040;2022-08-21T11:17:22;3.50;;;1.30;;
74042;SDS011;62384;53.600;10.040;2022-08-21T11:19:59;7.00;;;1.48;;
74042;SDS011;62384;53.600;10.040;2022-08-21T11:22:41;2.80;;;0.98;;
74042;SDS011;62384;53.600;10.040;2022-08-21T11:25:33;2.25;;;1.30;;
74042;SDS011;62384;53.600;10.040;2022-08-21T11:28:35;2.47;;;1.10;;
74042;SDS011;62384;53.600;10.040;2022-08-21T11:34:23;3.00;;;1.05;;
74042;SDS011;62384;53.600;10.040;2022-08-21T11:37:01;2.70;;;1.00;;
74042;SDS011;62384;53.600;10.040;2022-08-21T11:45:14;2.58;;;1.10;;
74042;SDS011;62384;53.600;10.040;2022-08-21T11:50:20;5.50;;;1.65;;
74042;SDS011;62384;53.600;10.040;2022-08-21T11:52:56;3.35;;;1.10;;
74042;SDS011;62384;53.600;10.040;2022-08-21T11:55:30;2.90;;;1.33;;
74042;SDS011;62384;53.600;10.040;2022-08-21T11:58:23;2.72;;;1.38;;
74042;SDS011;62384;53.600;10.040;2022-08-21T12:00:52;2.95;;;1.00;;
74042;SDS011;62384;53.600;10.040;2022-08-21T12:06:02;3.17;;;0.80;;
74042;SDS011;62384;53.600;10.040;2022-08-21T12:08:35;1.77;;;0.70;;
74042;SDS011;62384;53.600;10.040;2022-08-21T12:13:54;1.27;;;1.02;;
74042;SDS011;62384;53.600;10.040;2022-08-21T12:16:41;2.72;;;0.90;;
74042;SDS011;62384;53.600;10.040;2022-08-21T12:19:10;4.28;;;0.88;;
74042;SDS011;62384;53.600;10.040;2022-08-21T12:21:50;1.80;;;0.80;;
74042;SDS011;62384;53.600;10.040;2022-08-21T12:24:28;1.00;;;0.70;;
74042;SDS011;62384;53.600;10.040;2022-08-21T12:27:00;3.50;;;0.93;;
74042;SDS011;62384;53.600;10.040;2022-08-21T12:29:38;2.33;;;1.08;;
74042;SDS011;62384;53.600;10.040;2022-08-21T12:34:36;2.13;;;0.90;;
74042;SDS011;62384;53.600;10.040;2022-08-21T12:37:39;7.53;;;3.38;;
74042;SDS011;62384;53.600;10.040;2022-08-21T12:39:57;2.17;;;0.88;;
74042;SDS011;62384;53.600;10.040;2022-08-21T12:45:07;3.10;;;1.00;;
74042;SDS011;62384;53.600;10.040;2022-08-21T12:50:55;4.05;;;0.93;;
74042;SDS011;62384;53.600;10.040;2022-08-21T12:53:40;2.72;;;0.98;;
74042;SDS011;62384;53.600;10.040;2022-08-21T12:56:10;3.03;;;1.08;;
74042;SDS011;62384;53.600;10.040;2022-08-21T12:58:44;3.30;;;1.08;;
74042;SDS011;62384;53.600;10.040;2022-08-21T13:04:13;0.80;;;0.70;;
74042;SDS011;62384;53.600;10.040;2022-08-21T13:06:50;2.63;;;1.00;;
74042;SDS011;62384;53.600;10.040;2022-08-21T13:09:21;2.63;;;0.90;;
74042;SDS011;62384;53.600;10.040;2022-08-21T13:11:50;5.82;;;1.00;;
74042;SDS011;62384;53.600;10.040;2022-08-21T13:14:30;1.83;;;0.95;;
74042;SDS011;62384;53.600;10.040;2022-08-21T13:17:01;1.83;;;0.65;;
74042;SDS011;62384;53.600;10.040;2022-08-21T13:19:29;1.58;;;0.50;;
74042;SDS011;62384;53.600;10.040;2022-08-21T13:21:55;1.83;;;0.60;;
74042;SDS011;62384;53.600;10.040;2022-08-21T13:24:25;1.90;;;0.70;;
74042;SDS011;62384;53.600;10.040;2022-08-21T13:26:53;4.45;;;0.60;;
74042;SDS011;62384;53.600;10.040;2022-08-21T13:29:20;2.10;;;0.68;;
74042;SDS011;62384;53.600;10.040;2022-08-21T13:31:56;0.50;;;0.50;;
74042;SDS011;62384;53.600;10.040;2022-08-21T13:34:25;3.30;;;0.60;;
74042;SDS011;62384;53.600;10.040;2022-08-21T13:36:56;2.25;;;0.80;;
74042;SDS011;62384;53.600;10.040;2022-08-21T13:39:24;5.53;;;1.08;;
74042;SDS011;62384;53.600;10.040;2022-08-21T13:41:52;3.15;;;0.70;;
74042;SDS011;62384;53.600;10.040;2022-08-21T13:44:22;3.00;;;0.70;;
74042;SDS011;62384;53.600;10.040;2022-08-21T13:46:51;1.15;;;0.75;;
74042;SDS011;62384;53.600;10.040;2022-08-21T13:49:19;1.55;;;0.65;;
74042;SDS011;62384;53.600;10.040;2022-08-21T13:51:49;1.60;;;0.60;;
74042;SDS011;62384;53.600;10.040;2022-08-21T13:56:54;1.92;;;0.80;;
74042;SDS011;62384;53.600;10.040;2022-08-21T13:59:24;2.17;;;0.98;;
74042;SDS011;62384;53.600;10.040;2022-08-21T14:01:55;3.20;;;0.70;;
74042;SDS011;62384;53.600;10.040;2022-08-21T14:04:35;1.00;;;0.85;;
74042;SDS011;62384;53.600;10.040;2022-08-21T14:07:03;3.17;;;0.88;;
74042;SDS011;62384;53.600;10.040;2022-08-21T14:09:41;3.67;;;0.80;;
74042;SDS011;62384;53.600;10.040;2022-08-21T14:12:13;1.33;;;0.85;;
74042;SDS011;62384;53.600;10.040;2022-08-21T14:14:51;2.60;;;0.73;;
74042;SDS011;62384;53.600;10.040;2022-08-21T14:17:34;5.05;;;0.68;;
74042;SDS011;62384;53.600;10.040;2022-08-21T14:20:04;2.17;;;0.50;;
74042;SDS011;62384;53.600;10.040;2022-08-21T14:25:00;2.13;;;0.82;;
74042;SDS011;62384;53.600;10.040;2022-08-21T14:33:11;2.58;;;0.68;;
74042;SDS011;62384;53.600;10.040;2022-08-21T14:35:41;3.47;;;1.33;;
74042;SDS011;62384;53.600;10.040;2022-08-21T14:38:17;1.00;;;0.50;;
74042;SDS011;62384;53.600;10.040;2022-08-21T14:40:45;1.42;;;0.65;;
74042;SDS011;62384;53.600;10.040;2022-08-21T14:43:15;2.05;;;0.80;;
74042;SDS011;62384;53.600;10.040;2022-08-21T14:45:44;3.15;;;1.00;;
74042;SDS011;62384;53.600;10.040;2022-08-21T14:48:10;1.73;;;0.77;;
74042;SDS011;62384;53.600;10.040;2022-08-21T14:50:35;2.58;;;0.70;;
74042;SDS011;62384;53.600;10.040;2022-08-21T14:53:01;2.83;;;0.68;;
74042;SDS011;62384;53.600;10.040;2022-08-21T14:55:28;2.55;;;0.70;;
74042;SDS011;62384;53.600;10.040;2022-08-21T14:57:55;2.70;;;0.60;;
74042;SDS011;62384;53.600;10.040;2022-08-21T15:00:22;4.55;;;1.13;;
74042;SDS011;62384;53.600;10.040;2022-08-21T15:02:49;1.02;;;0.63;;
74042;SDS011;62384;53.600;10.040;2022-08-21T15:05:15;3.08;;;0.65;;
74042;SDS011;62384;53.600;10.040;2022-08-21T15:07:40;5.78;;;0.80;;
74042;SDS011;62384;53.600;10.040;2022-08-21T15:10:07;3.45;;;0.55;;
74042;SDS011;62384;53.600;10.040;2022-08-21T15:12:33;0.73;;;0.50;;
74042;SDS011;62384;53.600;10.040;2022-08-21T15:14:59;1.65;;;0.85;;
74042;SDS011;62384;53.600;10.040;2022-08-21T15:17:24;4.30;;;0.55;;
74042;SDS011;62384;53.600;10.040;2022-08-21T15:19:50;1.95;;;0.60;;
74042;SDS011;62384;53.600;10.040;2022-08-21T15:22:15;1.38;;;0.52;;
74042;SDS011;62384;53.600;10.040;2022-08-21T15:24:41;5.38;;;0.65;;
74042;SDS011;62384;53.600;10.040;2022-08-21T15:27:06;1.83;;;0.40;;
74042;SDS011;62384;53.600;10.040;2022-08-21T15:29:33;0.80;;;0.43;;
74042;SDS011;62384;53.600;10.040;2022-08-21T15:32:00;2.03;;;0.50;;
74042;SDS011;62384;53.600;10.040;2022-08-21T15:34:28;1.48;;;0.80;;
74042;SDS011;62384;53.600;10.040;2022-08-21T15:36:55;1.67;;;0.40;;
74042;SDS011;62384;53.600;10.040;2022-08-21T15:39:22;1.95;;;0.47;;
74042;SDS011;62384;53.600;10.040;2022-08-21T15:41:48;3.97;;;0.80;;
74042;SDS011;62384;53.600;10.040;2022-08-21T15:44:13;2.05;;;0.50;;
74042;SDS011;62384;53.600;10.040;2022-08-21T15:46:39;3.70;;;0.60;;
74042;SDS011;62384;53.600;10.040;2022-08-21T15:49:05;1.90;;;0.50;;
74042;SDS011;62384;53.600;10.040;2022-08-21T15:51:31;1.38;;;0.50;;
74042;SDS011;62384;53.600;10.040;2022-08-21T15:53:57;1.45;;;0.60;;
74042;SDS011;62384;53.600;10.040;2022-08-21T15:56:24;1.40;;;0.60;;
74042;SDS011;62384;53.600;10.040;2022-08-21T15:58:53;2.60;;;0.80;;
74042;SDS011;62384;53.600;10.040;2022-08-21T16:01:24;1.92;;;0.47;;
74042;SDS011;62384;53.600;10.040;2022-08-21T16:03:50;1.02;;;0.55;;
74042;SDS011;62384;53.600;10.040;2022-08-21T16:06:17;3.17;;;0.70;;
74042;SDS011;62384;53.600;10.040;2022-08-21T16:08:42;1.63;;;0.93;;
74042;SDS011;62384;53.600;10.040;2022-08-21T16:11:08;5.57;;;0.68;;
74042;SDS011;62384;53.600;10.040;2022-08-21T16:13:36;1.98;;;0.70;;
74042;SDS011;62384;53.600;10.040;2022-08-21T16:16:07;1.40;;;0.68;;
74042;SDS011;62384;53.600;10.040;2022-08-21T16:18:34;1.80;;;0.40;;
74042;SDS011;62384;53.600;10.040;2022-08-21T16:20:59;2.58;;;0.60;;
74042;SDS011;62384;53.600;10.040;2022-08-21T16:23:25;1.90;;;0.60;;